Terminal Aerodrome Forecast
Issued by NWS

Home | Current Version | Previous Version | Text Only | Print | Product List | Glossary On
Versions: 1 2 3 4 5 6 7 8 9 10 11 12
878
FTUS41 KBTV 011739
TAFSLK
TAF
KSLK 011739Z 0118/0218 09005KT P6SM OVC040
      TEMPO 0118/0122 BKN025 OVC040
     FM020300 VRB03KT P6SM VCSH OVC035
     FM020400 VRB03KT P6SM VCSH OVC025
     FM020800 00000KT P6SM VCSH SCT010 BKN020
     FM021500 VRB03KT P6SM VCSH OVC025=

USA.gov is the U.S. government's official web portal to all federal, state and local government web resources and services.